Updated23/05/2022 7:38am 
 

Nearby Airport METAR Reports

 

KVSF - Springfield, Vermont, USA
Distance from station: WSW 8mi, 12km
Updated: 05/23/2022 6:54am
Clear
Clear
 Wind from NW
Wind: NW 20 km/h, Gust: 35 km/h
Temperature: 55°F , 13°C
Dew Point: 43°F , 6°C
Humidity: 63%
Barometer: 1022 hPa
Clouds: Clear
Visibility: 16 km
2022/05/23 10:54 KVSF 231054Z AUTO 32011G19KT 280V360 10SM CLR 13/06 A3018 RMK AO2 SLP219 T01280056
KLEB - Lebanon, New Hampshire, USA
Distance from station: N 18mi, 29km
Updated: 05/23/2022 6:53am
Partly cloudy
Partly cloudy
 Wind from N
Wind: N 15 km/h
Temperature: 55°F , 13°C
Dew Point: 45°F , 7°C
Humidity: 67%
Barometer: 1022 hPa
Clouds: Partly cloudy
Visibility: 16 km
Cloud details: Partly cloudy 5000 ft
2022/05/23 10:53 KLEB 231053Z 35008KT 10SM SCT050 13/07 A3018 RMK AO2 SLP210 T01330067
KRUT - Rutland State, Vermont, USA
Distance from station: WNW 31mi, 50km
Updated: 05/23/2022 6:56am
Overcast
Overcast
 Wind from NW
Wind: NW 15 km/h
Temperature: 52°F , 11°C
Dew Point: 45°F , 7°C
Humidity: 77%
Barometer: 1023.4 hPa
Clouds: Overcast
Visibility: 16 km
Cloud details: Overcast 3600 ft
2022/05/23 10:56 KRUT 231056Z AUTO 32008KT 10SM OVC036 11/07 A3022 RMK AO2 SLP227 T01060072 $
 
KEEN - Keene/Dillant, New Hampshire, USA
Distance from station: S 34mi, 55km
Updated: 05/23/2022 6:56am
Clear
Clear
 Wind from N
Wind: N 13 km/h
Temperature: 54°F , 12°C
Dew Point: 48°F , 9°C
Humidity: 82%
Barometer: 1022 hPa
Clouds: Clear
Visibility: 16 km
2022/05/23 10:56 KEEN 231056Z AUTO 36007KT 10SM CLR 12/09 A3018 RMK AO2 SLP222 T01220089 $
K1P1 - Plymouth, New Hampshire, USA
Distance from station: NE 42mi, 67km
Updated: 05/23/2022 7:35am
Partly cloudy
Partly cloudy
 Wind from WNW
Wind: WNW 19 km/h
Temperature: 54°F , 12°C
Dew Point: 43°F , 6°C
Humidity: 67%
Barometer: 1022 hPa
Clouds: Partly cloudy
Visibility: 16 km
Cloud details: Partly cloudy 3700 ft
Partly cloudy 4500 ft
2022/05/23 11:35 K1P1 231135Z AUTO 30010KT 10SM SCT037 SCT045 12/06 A3018 RMK AO2 T01220058
KAFN - Jaffrey, New Hampshire, USA
Distance from station: SSE 44mi, 70km
Updated: 05/23/2022 7:34am
Mostly cloudy
Mostly cloudy
 Wind from NNW
Wind: NNW 9 km/h
Temperature: 54°F , 12°C
Dew Point: 45°F , 7°C
Humidity: 72%
Barometer: 1022 hPa
Clouds: Mostly cloudy
Visibility: 16 km
Cloud details: Mostly cloudy 2500 ft
2022/05/23 11:34 KAFN 231134Z AUTO 34005KT 10SM BKN025 12/07 A3018 RMK AO2 T01220067
 
KCON - Concord, New Hampshire, USA
Distance from station: ESE 45mi, 73km
Updated: 05/23/2022 6:51am
Clear
Clear
 Wind from NNW
Wind: NNW 19 km/h
Temperature: 55°F , 13°C
Dew Point: 45°F , 7°C
Humidity: 67%
Barometer: 1020.7 hPa
Clouds: Clear
Visibility: 16 km
2022/05/23 10:51 KCON 231051Z AUTO 33010KT 10SM CLR 13/07 A3014 RMK AO2 SLP205 T01330072
KLCI - Laconia Muni, New Hampshire, USA
Distance from station: ENE 49mi, 80km
Updated: 05/23/2022 6:56am
Clear
Clear
 Wind from WNW
Wind: WNW 17 km/h, Gust: 31 km/h
Temperature: 57°F , 14°C
Dew Point: 45°F , 7°C
Humidity: 63%
Barometer: 1020.7 hPa
Clouds: Clear
Visibility: 16 km
2022/05/23 10:56 KLCI 231056Z AUTO 30009G17KT 250V320 10SM CLR 14/07 A3014 RMK AO2 SLP205 T01390067
KDDH - Bennington, Vermont, USA
Distance from station: SW 55mi, 89km
Updated: 05/23/2022 6:54am
Overcast
Overcast
 Wind from NNW
Wind: NNW 11 km/h
Temperature: 54°F , 12°C
Dew Point: 45°F , 7°C
Humidity: 72%
Barometer: 1022.7 hPa
Clouds: Overcast
Visibility: 16 km
Cloud details: Overcast 3800 ft
2022/05/23 10:54 KDDH 231054Z AUTO 33006KT 10SM OVC038 12/07 A3020 RMK AO2 SLP226 T01170072 TSNO $
 
K6B0 - Middlebury, Vermont, USA
Distance from station: NW 56mi, 90km
Updated: 05/17/2022 1:55pm
NOT Current
Light drizzle, Overcast
Light drizzle, Overcast
 Wind from NNE
Wind: NNE 7 km/h
Temperature: 57°F , 14°C
Dew Point: 48°F , 9°C
Humidity: 72%
Barometer: 1003 hPa
Summary: Light Drizzle
Clouds: Overcast
Visibility: 16 km
Cloud details: Overcast 6000 ft
2022/05/17 17:55 K6B0 171755Z AUTO 02004KT 10SM -DZ OVC060 14/09 A2962 RMK AO2 T01350092 10189 20125
KMHT - Manchester, New Hampshire, USA
Distance from station: ESE 56mi, 90km
Updated: 05/23/2022 6:53am
Mostly cloudy
Mostly cloudy
 Wind from NNW
Wind: NNW 17 km/h
Temperature: 59°F , 15°C
Dew Point: 46°F , 8°C
Humidity: 63%
Barometer: 1020 hPa
Clouds: Mostly cloudy
Visibility: 16 km
Cloud details: Few Clouds 18000 ft
Mostly cloudy 23000 ft
2022/05/23 10:53 KMHT 231053Z 33009KT 10SM FEW180 BKN230 15/08 A3012 RMK AO2 SLP209 T01500078
KORE - Orange, Massachusetts, USA
Distance from station: S 56mi, 90km
Updated: 05/23/2022 6:52am
Clear
Clear
 Wind from N
Wind: N 13 km/h
Temperature: 55°F , 13°C
Dew Point: 46°F , 8°C
Humidity: 72%
Barometer: 1021.7 hPa
Clouds: Clear
Visibility: 16 km
2022/05/23 10:52 KORE 231052Z AUTO 35007KT 10SM CLR 13/08 A3017 RMK AO2 SLP215 T01330078
 
KMPV - Montpelier/Barre, Vermont, USA
Distance from station: N 58mi, 93km
Updated: 05/23/2022 7:33am
Partly cloudy
Partly cloudy
 Wind from N
Wind: N 15 km/h
Temperature: 52°F , 11°C
Dew Point: 39°F , 4°C
Humidity: 62%
Barometer: 1025.1 hPa
Clouds: Partly cloudy
Visibility: 16 km
Cloud details: Partly cloudy 2800 ft
2022/05/23 11:33 KMPV 231133Z AUTO 36008KT 10SM SCT028 11/04 A3027 RMK AO2 T01060039
KASH - Nashua/Boire Fld, New Hampshire, USA
Distance from station: SE 59mi, 95km
Updated: 05/23/2022 6:56am
Clear
Clear
 Wind from NW
Wind: NW 19 km/h
Temperature: 57°F , 14°C
Dew Point: 48°F , 9°C
Humidity: 72%
Barometer: 1021 hPa
Clouds: Clear
Visibility: 16 km
2022/05/23 10:56 KASH 231056Z 32010KT 10SM CLR 14/09 A3015 RMK AO2 SLP212 T01440094
KAQW - North Adams, Massachusetts, USA
Distance from station: SW 62mi, 99km
Updated: 05/23/2022 6:52am
Clear
Clear
 Wind from varies
Wind: varies 6 km/h
Temperature: 55°F , 13°C
Dew Point: 45°F , 7°C
Humidity: 67%
Barometer: 1022.7 hPa
Clouds: Clear
Visibility: 16 km
2022/05/23 10:52 KAQW 231052Z AUTO VRB03KT 10SM CLR 13/07 A3020 RMK AO2 SLP226 T01280067
 
KGFL - Glens Falls, New York, USA
Distance from station: W 63mi, 101km
Updated: 05/23/2022 6:53am
Mostly cloudy
Mostly cloudy
 Wind from NNW
Wind: NNW 13 km/h
Temperature: 54°F , 12°C
Dew Point: 45°F , 7°C
Humidity: 72%
Barometer: 1023.4 hPa
Clouds: Mostly cloudy
Visibility: 16 km
Cloud details: Mostly cloudy 3500 ft
2022/05/23 10:53 KGFL 231053Z AUTO 34007KT 10SM BKN035 12/07 A3022 RMK AO2 SLP235 T01170067
KFIT - Fitchburg, Massachusetts, USA
Distance from station: SSE 65mi, 105km
Updated: 05/23/2022 6:52am
Clear
Clear
 Wind from NNW
Wind: NNW 13 km/h
Temperature: 57°F , 14°C
Dew Point: 43°F , 6°C
Humidity: 59%
Barometer: 1021.3 hPa
Clouds: Clear
Visibility: 16 km
2022/05/23 10:52 KFIT 231052Z AUTO 33007KT 10SM CLR 14/06 A3016 RMK AO2 SLP211 T01390061 TSNO
KDAW - Rochester, New Hampshire, USA
Distance from station: E 73mi, 118km
Updated: 05/23/2022 6:51am
Clear
Clear
 Wind from NW
Wind: NW 15 km/h
Temperature: 61°F , 16°C
Dew Point: 48°F , 9°C
Humidity: 63%
Barometer: 1019.6 hPa
Clouds: Clear
Visibility: 16 km
2022/05/23 10:51 KDAW 231051Z AUTO 32008KT 10SM CLR 16/09 A3011 RMK AO2 SLP192 T01560094
 
K1V4 - St. Johnsbury, Vermont, USA
Distance from station: NNE 74mi, 119km
Updated: 05/23/2022 6:54am

 
Temperature: 52°F , 11°C
Dew Point: 41°F , 5°C
Humidity: 67%
Barometer: 1023 hPa
2022/05/23 10:54 K1V4 231054Z AUTO 11/05 A3021 RMK AO1 SLP224 T01060050
KLWM - Lawrence, Massachusetts, USA
Distance from station: SE 77mi, 124km
Updated: 05/23/2022 6:54am
Clear
Clear
 Wind from NNW
Wind: NNW 15 km/h
Temperature: 59°F , 15°C
Dew Point: 46°F , 8°C
Humidity: 63%
Barometer: 1020.7 hPa
Clouds: Clear
Visibility: 16 km
2022/05/23 10:54 KLWM 231054Z 33008KT 10SM CLR 15/08 A3014 RMK AO2 SLP203 T01500083



Flag Counter
free counter page views since 4/29/2009